Time,TemperatureF,DewpointF,PressureIn,WindDirection,WindDirectionDegrees,WindSpeedMPH,WindSpeedGustMPH,Humidity,HourlyPrecipIn,Conditions,Clouds,dailyrainin,SoftwareType,DateUTC
2013-02-18 00:00:00,43.9,43.1,28.49,SW,216,0.0,0.0,97,0.00,00:00,,0.00,WeatherDisplay:WD co,2013-02-17 22:00:00,
2013-02-18 00:05:00,43.9,43.1,28.49,SSW,193,0.0,0.0,97,0.00,00:05,,0.00,WeatherDisplay:WD co,2013-02-17 22:05:00,
2013-02-18 00:10:00,43.7,42.6,28.49,SSW,198,0.0,1.0,96,0.00,00:10,,0.00,WeatherDisplay:WD co,2013-02-17 22:10:00,
2013-02-18 00:15:00,43.7,42.9,28.49,West,262,0.0,0.0,97,0.00,00:15,,0.00,WeatherDisplay:WD co,2013-02-17 22:15:00,
2013-02-18 00:20:00,43.7,42.9,28.49,WNW,292,0.0,0.0,97,0.00,00:20,,0.00,WeatherDisplay:WD co,2013-02-17 22:20:00,
2013-02-18 00:25:00,43.5,42.7,28.49,NW,315,0.0,0.0,97,0.00,00:25,,0.00,WeatherDisplay:WD co,2013-02-17 22:25:00,
2013-02-18 00:30:00,43.5,42.7,28.49,NW,315,0.0,1.0,97,0.00,00:30,,0.00,WeatherDisplay:WD co,2013-02-17 22:30:00,
2013-02-18 00:35:00,43.5,42.7,28.49,North,360,0.0,1.0,97,0.00,00:35,,0.00,WeatherDisplay:WD co,2013-02-17 22:35:00,
2013-02-18 00:40:00,43.7,42.6,28.49,North,354,0.0,0.0,96,0.00,00:40,,0.00,WeatherDisplay:WD co,2013-02-17 22:40:00,
2013-02-18 00:45:00,43.7,42.9,28.49,NW,325,0.0,2.0,97,0.00,00:45,,0.00,WeatherDisplay:WD co,2013-02-17 22:45:00,
2013-02-18 00:50:00,44.1,43.5,28.48,NNE,26,0.0,2.0,98,0.00,00:50,,0.00,WeatherDisplay:WD co,2013-02-17 22:50:00,
2013-02-18 00:55:00,44.1,43.5,28.49,NE,39,0.0,1.0,98,0.00,00:55,,0.00,WeatherDisplay:WD co,2013-02-17 22:55:00,
2013-02-18 01:00:00,44.1,43.5,28.49,NNE,30,0.0,2.0,98,0.00,01:00,,0.00,WeatherDisplay:WD co,2013-02-17 23:00:00,
2013-02-18 01:05:00,44.1,43.5,28.49,ENE,68,0.0,2.0,98,0.00,01:05,,0.00,WeatherDisplay:WD co,2013-02-17 23:05:00,
2013-02-18 01:10:00,44.1,43.5,28.48,NE,49,0.0,2.0,98,0.00,01:10,,0.00,WeatherDisplay:WD co,2013-02-17 23:10:00,
2013-02-18 01:15:00,44.1,43.5,28.48,NE,45,0.0,2.0,98,0.00,01:15,,0.00,WeatherDisplay:WD co,2013-02-17 23:15:00,
2013-02-18 01:20:00,43.9,43.1,28.48,ENE,59,0.0,2.0,97,0.00,01:20,,0.00,WeatherDisplay:WD co,2013-02-17 23:20:00,
2013-02-18 01:25:00,43.9,43.1,28.48,NNE,25,1.0,2.0,97,0.00,01:25,,0.00,WeatherDisplay:WD co,2013-02-17 23:25:00,
2013-02-18 01:35:00,43.7,42.9,28.48,North,10,1.0,3.0,97,0.00,01:35,,0.00,WeatherDisplay:WD co,2013-02-17 23:35:00,
2013-02-18 01:40:00,43.9,43.1,28.48,NNE,30,0.0,2.0,97,0.00,01:40,,0.00,WeatherDisplay:WD co,2013-02-17 23:40:00,
2013-02-18 01:45:00,43.9,43.1,28.48,NE,35,0.0,2.0,97,0.00,01:45,,0.00,WeatherDisplay:WD co,2013-02-17 23:45:00,
2013-02-18 01:50:00,43.9,43.1,28.48,NNE,19,0.0,2.0,97,0.00,01:50,,0.00,WeatherDisplay:WD co,2013-02-17 23:50:00,
2013-02-18 02:00:00,43.5,42.7,28.48,North,0,0.0,1.0,97,0.00,02:00,,0.00,WeatherDisplay:WD co,2013-02-18 00:00:00,
2013-02-18 02:05:00,43.3,42.5,28.49,NNW,343,0.0,2.0,97,0.00,02:05,,0.00,WeatherDisplay:WD co,2013-02-18 00:05:00,
2013-02-18 02:10:00,43.5,42.7,28.48,NNE,26,0.0,2.0,97,0.00,02:10,,0.00,WeatherDisplay:WD co,2013-02-18 00:10:00,
2013-02-18 02:15:00,43.3,42.5,28.48,NE,50,0.0,2.0,97,0.00,02:15,,0.00,WeatherDisplay:WD co,2013-02-18 00:15:00,
2013-02-18 02:20:00,43.3,42.5,28.48,North,4,0.0,1.0,97,0.00,02:20,,0.00,WeatherDisplay:WD co,2013-02-18 00:20:00,
2013-02-18 02:25:00,43.3,42.5,28.48,North,354,0.0,2.0,97,0.00,02:25,,0.00,WeatherDisplay:WD co,2013-02-18 00:25:00,
2013-02-18 02:35:00,43.3,42.5,28.48,NNE,30,0.0,2.0,97,0.00,02:35,,0.00,WeatherDisplay:WD co,2013-02-18 00:35:00,
2013-02-18 02:40:00,43.3,42.8,28.48,NNE,30,0.0,2.0,98,0.00,02:40,,0.00,WeatherDisplay:WD co,2013-02-18 00:40:00,
2013-02-18 02:45:00,43.3,42.8,28.48,NNE,31,0.0,3.0,98,0.00,02:45,,0.00,WeatherDisplay:WD co,2013-02-18 00:45:00,
2013-02-18 02:50:00,43.3,42.8,28.48,NE,48,0.0,2.0,98,0.00,02:50,,0.00,WeatherDisplay:WD co,2013-02-18 00:50:00,
2013-02-18 02:55:00,43.3,42.8,28.48,NE,54,1.0,3.0,98,0.00,02:55,,0.00,WeatherDisplay:WD co,2013-02-18 00:55:00,
2013-02-18 03:00:00,43.5,43.0,28.48,NNE,27,0.0,3.0,98,0.00,03:00,,0.00,WeatherDisplay:WD co,2013-02-18 01:00:00,
2013-02-18 03:05:00,43.3,42.5,28.47,NNE,18,1.0,3.0,97,0.00,03:05,,0.00,WeatherDisplay:WD co,2013-02-18 01:05:00,
2013-02-18 03:10:00,43.3,42.5,28.47,NE,34,1.0,3.0,97,0.00,03:10,,0.00,WeatherDisplay:WD co,2013-02-18 01:10:00,
2013-02-18 03:15:00,43.5,43.0,28.47,NE,41,1.0,4.0,98,0.00,03:15,,0.00,WeatherDisplay:WD co,2013-02-18 01:15:00,
2013-02-18 03:20:00,43.5,42.7,28.47,NNE,24,0.0,3.0,97,0.00,03:20,,0.00,WeatherDisplay:WD co,2013-02-18 01:20:00,
2013-02-18 03:25:00,43.5,42.7,28.47,North,4,1.0,3.0,97,0.00,03:25,,0.00,WeatherDisplay:WD co,2013-02-18 01:25:00,
2013-02-18 03:30:00,43.5,42.7,28.47,NNE,27,0.0,2.0,97,0.00,03:30,,0.00,WeatherDisplay:WD co,2013-02-18 01:30:00,
2013-02-18 03:35:00,43.3,42.5,28.47,NNE,24,0.0,2.0,97,0.00,03:35,,0.00,WeatherDisplay:WD co,2013-02-18 01:35:00,
2013-02-18 03:40:00,43.2,42.4,28.47,NNE,24,0.0,3.0,97,0.00,03:40,,0.00,WeatherDisplay:WD co,2013-02-18 01:40:00,
2013-02-18 03:50:00,43.2,42.4,28.48,NNE,30,0.0,2.0,97,0.00,03:50,,0.00,WeatherDisplay:WD co,2013-02-18 01:50:00,
2013-02-18 03:55:00,43.2,42.4,28.48,NE,45,1.0,2.0,97,0.00,03:55,,0.00,WeatherDisplay:WD co,2013-02-18 01:55:00,
2013-02-18 04:00:00,43.0,42.2,28.48,NNE,16,0.0,2.0,97,0.00,04:00,,0.00,WeatherDisplay:WD co,2013-02-18 02:00:00,
2013-02-18 04:05:00,43.0,42.2,28.48,NNE,32,0.0,2.0,97,0.00,04:05,,0.00,WeatherDisplay:WD co,2013-02-18 02:05:00,
2013-02-18 04:10:00,43.0,42.2,28.48,NE,36,0.0,0.0,97,0.00,04:10,,0.00,WeatherDisplay:WD co,2013-02-18 02:10:00,
2013-02-18 04:15:00,43.0,42.2,28.48,NNE,22,0.0,2.0,97,0.00,04:15,,0.00,WeatherDisplay:WD co,2013-02-18 02:15:00,
2013-02-18 04:20:00,42.8,42.0,28.48,North,4,0.0,1.0,97,0.00,04:20,,0.00,WeatherDisplay:WD co,2013-02-18 02:20:00,
2013-02-18 04:25:00,42.8,42.0,28.48,NNE,23,0.0,2.0,97,0.00,04:25,,0.00,WeatherDisplay:WD co,2013-02-18 02:25:00,
2013-02-18 04:30:00,42.8,42.0,28.48,ENE,72,0.0,2.0,97,0.00,04:30,,0.00,WeatherDisplay:WD co,2013-02-18 02:30:00,
2013-02-18 04:35:00,43.0,42.2,28.48,NE,42,0.0,2.0,97,0.00,04:35,,0.00,WeatherDisplay:WD co,2013-02-18 02:35:00,
2013-02-18 04:40:00,43.0,42.2,28.48,NE,41,0.0,2.0,97,0.00,04:40,,0.00,WeatherDisplay:WD co,2013-02-18 02:40:00,
2013-02-18 04:45:00,42.8,42.0,28.48,NNE,15,1.0,2.0,97,0.00,04:45,,0.00,WeatherDisplay:WD co,2013-02-18 02:45:00,
2013-02-18 04:55:00,42.8,42.0,28.48,NE,54,0.0,2.0,97,0.00,04:55,,0.00,WeatherDisplay:WD co,2013-02-18 02:55:00,
2013-02-18 05:00:00,42.6,41.8,28.48,NE,52,0.0,2.0,97,0.00,05:00,,0.00,WeatherDisplay:WD co,2013-02-18 03:00:00,
2013-02-18 05:05:00,42.8,42.0,28.48,NE,41,0.0,2.0,97,0.00,05:05,,0.00,WeatherDisplay:WD co,2013-02-18 03:05:00,
2013-02-18 05:10:00,42.6,41.8,28.48,NE,45,0.0,3.0,97,0.00,05:10,,0.00,WeatherDisplay:WD co,2013-02-18 03:10:00,
2013-02-18 05:15:00,42.6,41.8,28.48,NE,54,0.0,3.0,97,0.00,05:15,,0.00,WeatherDisplay:WD co,2013-02-18 03:15:00,
2013-02-18 05:20:00,42.6,41.8,28.48,NE,45,0.0,3.0,97,0.00,05:20,,0.00,WeatherDisplay:WD co,2013-02-18 03:20:00,
2013-02-18 05:25:00,42.4,41.6,28.48,NE,40,1.0,2.0,97,0.00,05:25,,0.00,WeatherDisplay:WD co,2013-02-18 03:25:00,
2013-02-18 05:30:00,42.4,41.6,28.48,NE,48,0.0,2.0,97,0.00,05:30,,0.00,WeatherDisplay:WD co,2013-02-18 03:30:00,
2013-02-18 05:35:00,42.3,41.5,28.48,NE,36,0.0,2.0,97,0.00,05:35,,0.00,WeatherDisplay:WD co,2013-02-18 03:35:00,
2013-02-18 05:40:00,42.3,41.5,28.48,North,355,0.0,1.0,97,0.00,05:40,,0.00,WeatherDisplay:WD co,2013-02-18 03:40:00,
2013-02-18 05:45:00,42.3,41.2,28.48,NNW,336,0.0,2.0,96,0.00,05:45,,0.00,WeatherDisplay:WD co,2013-02-18 03:45:00,
2013-02-18 05:50:00,42.3,41.5,28.48,NNE,18,0.0,2.0,97,0.00,05:50,,0.00,WeatherDisplay:WD co,2013-02-18 03:50:00,
2013-02-18 05:55:00,42.6,42.1,28.48,NNW,343,0.0,2.0,98,0.00,05:55,,0.00,WeatherDisplay:WD co,2013-02-18 03:55:00,
2013-02-18 06:00:00,42.8,42.3,28.48,NNE,18,0.0,2.0,98,0.00,06:00,,0.00,WeatherDisplay:WD co,2013-02-18 04:00:00,
2013-02-18 06:05:00,43.0,42.7,28.48,NE,45,1.0,3.0,99,0.00,06:05,,0.00,WeatherDisplay:WD co,2013-02-18 04:05:00,
2013-02-18 06:15:00,43.2,42.9,28.48,North,10,0.0,2.0,99,0.00,06:15,,0.00,WeatherDisplay:WD co,2013-02-18 04:15:00,
2013-02-18 06:20:00,43.0,42.5,28.48,NW,317,0.0,0.0,98,0.00,06:20,,0.00,WeatherDisplay:WD co,2013-02-18 04:20:00,
2013-02-18 06:25:00,42.8,42.3,28.49,West,280,0.0,1.0,98,0.00,06:25,,0.00,WeatherDisplay:WD co,2013-02-18 04:25:00,
2013-02-18 06:35:00,42.4,41.6,28.49,WSW,240,0.0,2.0,97,0.00,06:35,,0.00,WeatherDisplay:WD co,2013-02-18 04:35:00,
2013-02-18 06:45:00,42.3,41.5,28.49,South,172,0.0,1.0,97,0.00,06:45,,0.00,WeatherDisplay:WD co,2013-02-18 04:45:00,
2013-02-18 07:05:00,42.6,41.8,28.49,NE,41,0.0,2.0,97,0.00,07:05,,0.00,WeatherDisplay:WD co,2013-02-18 05:05:00,
2013-02-18 07:10:00,42.8,42.3,28.50,NE,36,1.0,2.0,98,0.00,07:10,,0.00,WeatherDisplay:WD co,2013-02-18 05:10:00,
2013-02-18 07:15:00,43.0,42.5,28.50,NNE,32,0.0,3.0,98,0.00,07:15,,0.00,WeatherDisplay:WD co,2013-02-18 05:15:00,
2013-02-18 07:20:00,43.2,42.6,28.50,NE,41,0.0,3.0,98,0.00,07:20,,0.00,WeatherDisplay:WD co,2013-02-18 05:20:00,
2013-02-18 07:25:00,43.3,42.8,28.50,NE,39,1.0,4.0,98,0.00,07:25,,0.00,WeatherDisplay:WD co,2013-02-18 05:25:00,
2013-02-18 07:30:00,43.3,42.8,28.50,NE,46,1.0,6.0,98,0.00,07:30,,0.00,WeatherDisplay:WD co,2013-02-18 05:30:00,
2013-02-18 07:35:00,43.5,43.0,28.50,NE,40,1.0,6.0,98,0.00,07:35,,0.00,WeatherDisplay:WD co,2013-02-18 05:35:00,
2013-02-18 07:40:00,43.7,43.2,28.51,NE,47,3.0,7.0,98,0.00,07:40,,0.00,WeatherDisplay:WD co,2013-02-18 05:40:00,
2013-02-18 07:45:00,44.6,44.1,28.50,NE,44,3.0,7.0,98,0.00,07:45,,0.00,WeatherDisplay:WD co,2013-02-18 05:45:00,
2013-02-18 07:50:00,45.5,44.7,28.50,NE,38,3.0,7.0,97,0.00,07:50,,0.00,WeatherDisplay:WD co,2013-02-18 05:50:00,
2013-02-18 07:55:00,46.2,45.1,28.50,NE,37,2.0,7.0,96,0.00,07:55,,0.00,WeatherDisplay:WD co,2013-02-18 05:55:00,
2013-02-18 08:00:00,46.6,45.2,28.51,NE,40,3.0,7.0,95,0.00,08:00,,0.00,WeatherDisplay:WD co,2013-02-18 06:00:00,
2013-02-18 08:05:00,47.3,45.7,28.51,NE,45,1.0,7.0,94,0.00,08:05,,0.00,WeatherDisplay:WD co,2013-02-18 06:05:00,
2013-02-18 08:15:00,48.7,46.5,28.51,NE,34,3.0,5.0,92,0.00,08:15,,0.00,WeatherDisplay:WD co,2013-02-18 06:15:00,
2013-02-18 08:20:00,48.7,46.5,28.51,NE,39,1.0,4.0,92,0.00,08:20,,0.00,WeatherDisplay:WD co,2013-02-18 06:20:00,
2013-02-18 08:30:00,47.1,44.9,28.51,NE,36,1.0,5.0,92,0.00,08:30,,0.00,WeatherDisplay:WD co,2013-02-18 06:30:00,
2013-02-18 08:35:00,46.9,45.0,28.51,NE,37,2.0,7.0,93,0.00,08:35,,0.00,WeatherDisplay:WD co,2013-02-18 06:35:00,
2013-02-18 08:40:00,46.9,45.0,28.50,NNE,17,5.0,8.0,93,0.00,08:40,,0.00,WeatherDisplay:WD co,2013-02-18 06:40:00,
2013-02-18 08:45:00,48.4,46.4,28.51,NE,50,2.0,8.0,93,0.00,08:45,,0.00,WeatherDisplay:WD co,2013-02-18 06:45:00,
2013-02-18 08:50:00,49.6,47.1,28.51,NE,49,2.0,7.0,91,0.00,08:50,,0.00,WeatherDisplay:WD co,2013-02-18 06:50:00,
2013-02-18 08:55:00,50.4,47.5,28.52,NNE,28,3.0,7.0,90,0.00,08:55,,0.00,WeatherDisplay:WD co,2013-02-18 06:55:00,
2013-02-18 09:00:00,51.4,48.3,28.51,NNE,29,0.0,4.0,89,0.00,09:00,,0.00,WeatherDisplay:WD co,2013-02-18 07:00:00,
2013-02-18 09:05:00,52.3,48.6,28.51,NE,42,3.0,5.0,87,0.00,09:05,,0.00,WeatherDisplay:WD co,2013-02-18 07:05:00,
2013-02-18 09:10:00,52.5,48.5,28.52,NNE,27,2.0,5.0,86,0.00,09:10,,0.00,WeatherDisplay:WD co,2013-02-18 07:10:00,
2013-02-18 09:15:00,52.7,48.6,28.51,NNE,27,2.0,5.0,86,0.00,09:15,,0.00,WeatherDisplay:WD co,2013-02-18 07:15:00,
2013-02-18 09:20:00,52.5,48.5,28.51,NE,41,1.0,8.0,86,0.00,09:20,,0.00,WeatherDisplay:WD co,2013-02-18 07:20:00,
2013-02-18 09:25:00,53.1,48.4,28.51,NE,48,2.0,4.0,84,0.00,09:25,,0.00,WeatherDisplay:WD co,2013-02-18 07:25:00,
2013-02-18 09:35:00,54.9,49.5,28.52,NE,47,1.0,4.0,82,0.00,09:35,,0.00,WeatherDisplay:WD co,2013-02-18 07:35:00,
2013-02-18 09:40:00,54.3,48.6,28.52,NNE,27,3.0,7.0,81,0.00,09:40,,0.00,WeatherDisplay:WD co,2013-02-18 07:40:00,
2013-02-18 09:45:00,54.5,48.8,28.52,NNE,20,3.0,7.0,81,0.00,09:45,,0.00,WeatherDisplay:WD co,2013-02-18 07:45:00,
2013-02-18 09:50:00,54.1,48.1,28.52,NE,44,3.0,7.0,80,0.00,09:50,,0.00,WeatherDisplay:WD co,2013-02-18 07:50:00,
2013-02-18 09:55:00,54.3,47.9,28.52,NNE,32,3.0,8.0,79,0.00,09:55,,0.00,WeatherDisplay:WD co,2013-02-18 07:55:00,
2013-02-18 10:00:00,55.2,48.8,28.52,North,354,1.0,6.0,79,0.00,10:00,,0.00,WeatherDisplay:WD co,2013-02-18 08:00:00,
2013-02-18 10:05:00,55.2,48.8,28.52,North,358,1.0,7.0,79,0.00,10:05,,0.00,WeatherDisplay:WD co,2013-02-18 08:05:00,
2013-02-18 10:10:00,55.9,48.8,28.51,ENE,78,0.0,4.0,77,0.00,10:10,,0.00,WeatherDisplay:WD co,2013-02-18 08:10:00,
2013-02-18 10:15:00,56.3,48.5,28.51,ENE,63,3.0,8.0,75,0.00,10:15,,0.00,WeatherDisplay:WD co,2013-02-18 08:15:00,
2013-02-18 10:20:00,56.1,48.7,28.51,NE,45,3.0,8.0,76,0.00,10:20,,0.00,WeatherDisplay:WD co,2013-02-18 08:20:00,
2013-02-18 10:25:00,56.5,48.6,28.51,NE,34,1.0,9.0,75,0.00,10:25,,0.00,WeatherDisplay:WD co,2013-02-18 08:25:00,
2013-02-18 10:30:00,57.0,48.4,28.51,North,355,3.0,7.0,73,0.00,10:30,,0.00,WeatherDisplay:WD co,2013-02-18 08:30:00,
2013-02-18 10:35:00,57.0,48.4,28.51,North,360,3.0,7.0,73,0.00,10:35,,0.00,WeatherDisplay:WD co,2013-02-18 08:35:00,
2013-02-18 10:40:00,57.2,48.6,28.51,NE,35,3.0,7.0,73,0.00,10:40,,0.00,WeatherDisplay:WD co,2013-02-18 08:40:00,
2013-02-18 10:45:00,56.8,47.9,28.51,NE,48,3.0,8.0,72,0.00,10:45,,0.00,WeatherDisplay:WD co,2013-02-18 08:45:00,
2013-02-18 10:50:00,56.7,47.7,28.51,NE,49,3.0,9.0,72,0.00,10:50,,0.00,WeatherDisplay:WD co,2013-02-18 08:50:00,
2013-02-18 10:55:00,56.8,47.9,28.51,NE,53,3.0,10.0,72,0.00,10:55,,0.00,WeatherDisplay:WD co,2013-02-18 08:55:00,
2013-02-18 11:00:00,56.7,47.0,28.51,NNE,24,3.0,9.0,70,0.00,11:00,,0.00,WeatherDisplay:WD co,2013-02-18 09:00:00,
2013-02-18 11:05:00,57.4,48.1,28.51,NE,44,1.0,8.0,71,0.00,11:05,,0.00,WeatherDisplay:WD co,2013-02-18 09:05:00,
2013-02-18 11:10:00,58.8,48.3,28.50,NE,40,1.0,4.0,68,0.00,11:10,,0.00,WeatherDisplay:WD co,2013-02-18 09:10:00,
2013-02-18 11:15:00,60.1,48.3,28.51,NW,310,3.0,5.0,65,0.00,11:15,,0.00,WeatherDisplay:WD co,2013-02-18 09:15:00,
2013-02-18 11:25:00,58.6,47.7,28.51,ENE,69,3.0,8.0,67,0.00,11:25,,0.00,WeatherDisplay:WD co,2013-02-18 09:25:00,
2013-02-18 11:30:00,58.8,48.7,28.51,ENE,60,1.0,5.0,69,0.00,11:30,,0.00,WeatherDisplay:WD co,2013-02-18 09:30:00,
2013-02-18 11:35:00,59.2,48.2,28.51,ENE,59,1.0,5.0,67,0.00,11:35,,0.00,WeatherDisplay:WD co,2013-02-18 09:35:00,
2013-02-18 11:40:00,59.7,47.9,28.51,ENE,76,2.0,6.0,65,0.00,11:40,,0.00,WeatherDisplay:WD co,2013-02-18 09:40:00,
2013-02-18 11:45:00,59.7,47.1,28.50,ENE,65,2.0,6.0,63,0.00,11:45,,0.00,WeatherDisplay:WD co,2013-02-18 09:45:00,
2013-02-18 11:50:00,58.3,46.6,28.50,NE,48,3.0,9.0,65,0.00,11:50,,0.00,WeatherDisplay:WD co,2013-02-18 09:50:00,
2013-02-18 11:55:00,57.4,46.1,28.50,NE,42,2.0,7.0,66,0.00,11:55,,0.00,WeatherDisplay:WD co,2013-02-18 09:55:00,
2013-02-18 12:00:00,57.7,46.9,28.50,NE,39,1.0,8.0,67,0.00,12:00,,0.00,WeatherDisplay:WD co,2013-02-18 10:00:00,
2013-02-18 12:10:00,60.4,48.6,28.49,NNE,30,1.0,4.0,65,0.00,12:10,,0.00,WeatherDisplay:WD co,2013-02-18 10:10:00,
2013-02-18 12:15:00,60.6,47.9,28.50,ENE,70,1.0,5.0,63,0.00,12:15,,0.00,WeatherDisplay:WD co,2013-02-18 10:15:00,
2013-02-18 12:20:00,61.0,47.4,28.50,ESE,118,1.0,5.0,61,0.00,12:20,,0.00,WeatherDisplay:WD co,2013-02-18 10:20:00,
2013-02-18 12:25:00,61.2,47.6,28.49,SE,133,2.0,4.0,61,0.00,12:25,,0.00,WeatherDisplay:WD co,2013-02-18 10:25:00,
2013-02-18 12:30:00,59.5,46.9,28.49,ESE,119,0.0,5.0,63,0.00,12:30,,0.00,WeatherDisplay:WD co,2013-02-18 10:30:00,
2013-02-18 12:35:00,58.6,46.5,28.49,SSE,164,0.0,4.0,64,0.00,12:35,,0.00,WeatherDisplay:WD co,2013-02-18 10:35:00,
2013-02-18 12:40:00,58.1,46.4,28.49,South,181,0.0,3.0,65,0.00,12:40,,0.00,WeatherDisplay:WD co,2013-02-18 10:40:00,
2013-02-18 12:45:00,58.8,47.5,28.49,SSE,160,0.0,3.0,66,0.00,12:45,,0.00,WeatherDisplay:WD co,2013-02-18 10:45:00,
2013-02-18 12:55:00,62.6,50.2,28.49,East,90,1.0,2.0,64,0.00,12:55,,0.00,WeatherDisplay:WD co,2013-02-18 10:55:00,
2013-02-18 13:00:00,64.8,51.0,28.49,SW,214,1.0,3.0,61,0.00,13:00,,0.00,WeatherDisplay:WD co,2013-02-18 11:00:00,
2013-02-18 13:05:00,64.4,49.3,28.49,SE,140,2.0,4.0,58,0.00,13:05,,0.00,WeatherDisplay:WD co,2013-02-18 11:05:00,
2013-02-18 13:10:00,63.9,49.7,28.48,ENE,70,0.0,3.0,60,0.00,13:10,,0.00,WeatherDisplay:WD co,2013-02-18 11:10:00,
2013-02-18 13:15:00,64.0,50.3,28.48,ENE,68,0.0,3.0,61,0.00,13:15,,0.00,WeatherDisplay:WD co,2013-02-18 11:15:00,
2013-02-18 13:20:00,64.2,50.0,28.48,SW,220,1.0,3.0,60,0.00,13:20,,0.00,WeatherDisplay:WD co,2013-02-18 11:20:00,
2013-02-18 13:25:00,63.0,49.3,28.48,WSW,238,1.0,2.0,61,0.00,13:25,,0.00,WeatherDisplay:WD co,2013-02-18 11:25:00,
2013-02-18 13:30:00,61.7,48.5,28.48,East,90,0.0,2.0,62,0.00,13:30,,0.00,WeatherDisplay:WD co,2013-02-18 11:30:00,
2013-02-18 13:35:00,60.6,47.9,28.48,NE,45,0.0,2.0,63,0.00,13:35,,0.00,WeatherDisplay:WD co,2013-02-18 11:35:00,
2013-02-18 13:40:00,59.4,47.6,28.48,ENE,61,1.0,3.0,65,0.00,13:40,,0.00,WeatherDisplay:WD co,2013-02-18 11:40:00,
2013-02-18 13:45:00,58.8,47.9,28.49,NE,46,1.0,3.0,67,0.00,13:45,,0.00,WeatherDisplay:WD co,2013-02-18 11:45:00,
2013-02-18 13:50:00,58.8,48.7,28.48,NNE,13,0.0,2.0,69,0.00,13:50,,0.00,WeatherDisplay:WD co,2013-02-18 11:50:00,
2013-02-18 14:00:00,60.1,50.3,28.48,NE,37,0.0,2.0,70,0.00,14:00,,0.00,WeatherDisplay:WD co,2013-02-18 12:00:00,
2013-02-18 14:05:00,61.2,50.9,28.48,East,86,0.0,2.0,69,0.00,14:05,,0.00,WeatherDisplay:WD co,2013-02-18 12:05:00,
2013-02-18 14:10:00,62.1,51.0,28.48,ESE,120,0.0,2.0,67,0.00,14:10,,0.00,WeatherDisplay:WD co,2013-02-18 12:10:00,
2013-02-18 14:20:00,62.1,51.0,28.48,NE,52,0.0,2.0,67,0.00,14:20,,0.00,WeatherDisplay:WD co,2013-02-18 12:20:00,
2013-02-18 14:30:00,64.0,51.6,28.47,ENE,68,0.0,2.0,64,0.00,14:30,,0.00,WeatherDisplay:WD co,2013-02-18 12:30:00,
2013-02-18 14:35:00,64.0,51.2,28.48,ENE,77,1.0,3.0,63,0.00,14:35,,0.00,WeatherDisplay:WD co,2013-02-18 12:35:00,
2013-02-18 14:40:00,63.3,50.5,28.47,East,97,0.0,3.0,63,0.00,14:40,,0.00,WeatherDisplay:WD co,2013-02-18 12:40:00,
2013-02-18 14:45:00,63.0,50.6,28.48,NE,50,0.0,3.0,64,0.00,14:45,,0.00,WeatherDisplay:WD co,2013-02-18 12:45:00,
2013-02-18 14:50:00,63.3,50.9,28.48,NE,53,0.0,3.0,64,0.00,14:50,,0.00,WeatherDisplay:WD co,2013-02-18 12:50:00,
2013-02-18 14:55:00,63.9,51.4,28.47,East,93,0.0,3.0,64,0.00,14:55,,0.00,WeatherDisplay:WD co,2013-02-18 12:55:00,
2013-02-18 15:00:00,64.0,51.2,28.47,SSE,158,1.0,4.0,63,0.00,15:00,,0.00,WeatherDisplay:WD co,2013-02-18 13:00:00,
2013-02-18 15:05:00,64.0,51.2,28.48,SE,128,0.0,3.0,63,0.00,15:05,,0.00,WeatherDisplay:WD co,2013-02-18 13:05:00,
2013-02-18 15:10:00,64.0,51.2,28.47,NNE,24,1.0,4.0,63,0.00,15:10,,0.00,WeatherDisplay:WD co,2013-02-18 13:10:00,
2013-02-18 15:15:00,63.1,50.3,28.47,ENE,57,0.0,4.0,63,0.00,15:15,,0.00,WeatherDisplay:WD co,2013-02-18 13:15:00,
2013-02-18 15:20:00,62.4,50.1,28.48,NE,48,0.0,2.0,64,0.00,15:20,,0.00,WeatherDisplay:WD co,2013-02-18 13:20:00,
2013-02-18 15:25:00,61.5,49.6,28.47,North,5,0.0,3.0,65,0.00,15:25,,0.00,WeatherDisplay:WD co,2013-02-18 13:25:00,
2013-02-18 15:30:00,60.8,49.8,28.48,NE,41,0.0,3.0,67,0.00,15:30,,0.00,WeatherDisplay:WD co,2013-02-18 13:30:00,
2013-02-18 15:35:00,59.9,49.3,28.48,ENE,66,0.0,2.0,68,0.00,15:35,,0.00,WeatherDisplay:WD co,2013-02-18 13:35:00,
2013-02-18 15:40:00,59.2,49.4,28.47,East,100,0.0,4.0,70,0.00,15:40,,0.00,WeatherDisplay:WD co,2013-02-18 13:40:00,
2013-02-18 15:45:00,59.0,49.6,28.47,NNW,346,0.0,2.0,71,0.00,15:45,,0.00,WeatherDisplay:WD co,2013-02-18 13:45:00,
2013-02-18 15:50:00,58.6,49.3,28.47,NNE,25,0.0,2.0,71,0.00,15:50,,0.00,WeatherDisplay:WD co,2013-02-18 13:50:00,
2013-02-18 15:55:00,58.6,49.3,28.47,NE,53,1.0,2.0,71,0.00,15:55,,0.00,WeatherDisplay:WD co,2013-02-18 13:55:00,
2013-02-18 16:00:00,58.5,49.5,28.47,SE,127,0.0,2.0,72,0.00,16:00,,0.00,WeatherDisplay:WD co,2013-02-18 14:00:00,
2013-02-18 16:05:00,58.3,49.3,28.47,WNW,296,0.0,2.0,72,0.00,16:05,,0.00,WeatherDisplay:WD co,2013-02-18 14:05:00,
2013-02-18 16:10:00,57.7,49.1,28.46,ENE,72,0.0,2.0,73,0.00,16:10,,0.00,WeatherDisplay:WD co,2013-02-18 14:10:00,
2013-02-18 16:15:00,57.9,49.3,28.46,SE,143,0.0,1.0,73,0.00,16:15,,0.00,WeatherDisplay:WD co,2013-02-18 14:15:00,
2013-02-18 16:20:00,58.3,49.7,28.46,SW,230,0.0,2.0,73,0.00,16:20,,0.00,WeatherDisplay:WD co,2013-02-18 14:20:00,
2013-02-18 16:25:00,58.1,49.1,28.47,WSW,247,0.0,2.0,72,0.00,16:25,,0.00,WeatherDisplay:WD co,2013-02-18 14:25:00,
2013-02-18 16:30:00,57.7,49.1,28.46,SE,145,0.0,2.0,73,0.00,16:30,,0.00,WeatherDisplay:WD co,2013-02-18 14:30:00,
2013-02-18 16:35:00,57.6,49.0,28.46,ESE,114,0.0,2.0,73,0.00,16:35,,0.00,WeatherDisplay:WD co,2013-02-18 14:35:00,
2013-02-18 16:40:00,57.2,48.6,28.46,ENE,68,0.0,2.0,73,0.00,16:40,,0.00,WeatherDisplay:WD co,2013-02-18 14:40:00,
2013-02-18 16:45:00,57.0,48.4,28.46,NNE,26,0.0,2.0,73,0.00,16:45,,0.00,WeatherDisplay:WD co,2013-02-18 14:45:00,
2013-02-18 16:50:00,56.7,47.7,28.45,North,353,0.0,2.0,72,0.00,16:50,,0.00,WeatherDisplay:WD co,2013-02-18 14:50:00,
2013-02-18 16:55:00,56.3,47.8,28.46,NNE,15,0.0,2.0,73,0.00,16:55,,0.00,WeatherDisplay:WD co,2013-02-18 14:55:00,
2013-02-18 17:05:00,55.8,47.6,28.46,East,84,0.0,2.0,74,0.00,17:05,,0.00,WeatherDisplay:WD co,2013-02-18 15:05:00,
2013-02-18 17:10:00,55.6,47.4,28.46,NE,56,0.0,1.0,74,0.00,17:10,,0.00,WeatherDisplay:WD co,2013-02-18 15:10:00,
2013-02-18 17:15:00,55.2,47.4,28.46,NE,45,0.0,2.0,75,0.00,17:15,,0.00,WeatherDisplay:WD co,2013-02-18 15:15:00,
2013-02-18 17:20:00,55.2,47.4,28.46,NE,45,0.0,2.0,75,0.00,17:15,,0.00,WeatherDisplay:WD co,2013-02-18 15:20:00,
2013-02-18 20:00:00,51.3,47.5,28.47,NE,39,1.0,6.0,87,0.00,20:00,,0.00,WeatherDisplay:WD co,2013-02-18 18:00:00,
2013-02-18 20:05:00,51.3,47.5,28.47,NE,35,2.0,4.0,87,0.00,20:05,,0.00,WeatherDisplay:WD co,2013-02-18 18:05:00,
2013-02-18 20:10:00,51.1,47.3,28.48,NE,45,0.0,4.0,87,0.00,20:10,,0.00,WeatherDisplay:WD co,2013-02-18 18:10:00,
2013-02-18 20:15:00,51.1,47.6,28.47,NE,39,3.0,4.0,88,0.00,20:15,,0.00,WeatherDisplay:WD co,2013-02-18 18:15:00,
2013-02-18 20:20:00,51.1,47.6,28.48,NE,39,1.0,4.0,88,0.00,20:20,,0.00,WeatherDisplay:WD co,2013-02-18 18:20:00,
2013-02-18 20:25:00,50.9,47.5,28.48,NE,39,3.0,7.0,88,0.00,20:25,,0.00,WeatherDisplay:WD co,2013-02-18 18:25:00,
2013-02-18 20:30:00,50.9,47.5,28.47,ENE,66,1.0,6.0,88,0.00,20:30,,0.00,WeatherDisplay:WD co,2013-02-18 18:30:00,
2013-02-18 20:35:00,50.9,47.5,28.48,ENE,63,1.0,4.0,88,0.00,20:35,,0.00,WeatherDisplay:WD co,2013-02-18 18:35:00,
2013-02-18 20:45:00,50.9,47.5,28.48,NE,54,2.0,4.0,88,0.00,20:45,,0.00,WeatherDisplay:WD co,2013-02-18 18:45:00,
2013-02-18 20:50:00,50.9,47.5,28.48,NE,45,1.0,4.0,88,0.00,20:50,,0.00,WeatherDisplay:WD co,2013-02-18 18:50:00,
2013-02-18 20:55:00,50.9,47.5,28.48,NE,39,1.0,4.0,88,0.00,20:55,,0.00,WeatherDisplay:WD co,2013-02-18 18:55:00,
2013-02-18 21:00:00,50.7,47.6,28.48,NNE,27,1.0,3.0,89,0.00,21:00,,0.00,WeatherDisplay:WD co,2013-02-18 19:00:00,
2013-02-18 21:05:00,50.9,47.8,28.47,NE,39,1.0,3.0,89,0.00,21:05,,0.00,WeatherDisplay:WD co,2013-02-18 19:05:00,
2013-02-18 21:15:00,50.7,47.6,28.47,NE,38,0.0,4.0,89,0.00,21:15,,0.00,WeatherDisplay:WD co,2013-02-18 19:15:00,
2013-02-18 21:25:00,50.7,47.6,28.47,North,1,1.0,4.0,89,0.00,21:25,,0.00,WeatherDisplay:WD co,2013-02-18 19:25:00,
2013-02-18 21:30:00,50.7,47.6,28.47,NNE,16,1.0,4.0,89,0.00,21:30,,0.00,WeatherDisplay:WD co,2013-02-18 19:30:00,
2013-02-18 21:35:00,50.7,47.6,28.47,NNE,26,1.0,5.0,89,0.00,21:35,,0.00,WeatherDisplay:WD co,2013-02-18 19:35:00,
2013-02-18 21:40:00,50.5,47.4,28.47,NNE,18,1.0,4.0,89,0.00,21:40,,0.00,WeatherDisplay:WD co,2013-02-18 19:40:00,
2013-02-18 21:45:00,50.5,47.4,28.47,NNE,18,1.0,4.0,89,0.00,21:45,,0.00,WeatherDisplay:WD co,2013-02-18 19:45:00,
2013-02-18 21:50:00,50.5,47.4,28.47,NNE,31,2.0,4.0,89,0.00,21:50,,0.00,WeatherDisplay:WD co,2013-02-18 19:50:00,
2013-02-18 22:00:00,50.4,47.5,28.48,NE,56,3.0,4.0,90,0.00,22:00,,0.00,WeatherDisplay:WD co,2013-02-18 20:00:00,
2013-02-18 22:05:00,50.4,47.5,28.47,NE,55,1.0,4.0,90,0.00,22:05,,0.00,WeatherDisplay:WD co,2013-02-18 20:05:00,
2013-02-18 22:10:00,50.4,47.5,28.48,NE,40,3.0,5.0,90,0.00,22:10,,0.00,WeatherDisplay:WD co,2013-02-18 20:10:00,
2013-02-18 22:15:00,50.2,47.4,28.47,ENE,73,2.0,5.0,90,0.00,22:15,,0.00,WeatherDisplay:WD co,2013-02-18 20:15:00,
2013-02-18 22:20:00,50.2,47.4,28.48,NE,55,2.0,4.0,90,0.00,22:20,,0.00,WeatherDisplay:WD co,2013-02-18 20:20:00,
2013-02-18 22:30:00,50.0,47.2,28.47,NE,49,0.0,4.0,90,0.00,22:30,,0.00,WeatherDisplay:WD co,2013-02-18 20:30:00,
2013-02-18 22:35:00,49.8,47.0,28.47,NNE,21,0.0,4.0,90,0.00,22:35,,0.00,WeatherDisplay:WD co,2013-02-18 20:35:00,
2013-02-18 22:40:00,49.6,46.8,28.46,NE,38,0.0,2.0,90,0.00,22:40,,0.00,WeatherDisplay:WD co,2013-02-18 20:40:00,
2013-02-18 22:45:00,49.5,46.9,28.47,NE,41,0.0,2.0,91,0.00,22:45,,0.00,WeatherDisplay:WD co,2013-02-18 20:45:00,
2013-02-18 22:50:00,49.3,46.8,28.46,NE,36,0.0,2.0,91,0.00,22:50,,0.00,WeatherDisplay:WD co,2013-02-18 20:50:00,
2013-02-18 23:00:00,49.3,47.1,28.46,NE,45,1.0,4.0,92,0.00,23:00,,0.00,WeatherDisplay:WD co,2013-02-18 21:00:00,
2013-02-18 23:05:00,49.3,47.1,28.46,NE,45,1.0,3.0,92,0.00,23:05,,0.00,WeatherDisplay:WD co,2013-02-18 21:05:00,
2013-02-18 23:10:00,49.3,47.1,28.46,ENE,61,1.0,2.0,92,0.00,23:10,,0.00,WeatherDisplay:WD co,2013-02-18 21:10:00,
2013-02-18 23:15:00,48.9,46.7,28.45,NE,47,1.0,3.0,92,0.00,23:15,,0.00,WeatherDisplay:WD co,2013-02-18 21:15:00,
2013-02-18 23:20:00,48.9,46.7,28.46,NE,36,1.0,2.0,92,0.00,23:20,,0.00,WeatherDisplay:WD co,2013-02-18 21:20:00,
2013-02-18 23:25:00,48.9,46.7,28.47,NE,45,0.0,2.0,92,0.00,23:25,,0.00,WeatherDisplay:WD co,2013-02-18 21:25:00,
2013-02-18 23:30:00,48.7,46.5,28.46,ENE,74,0.0,2.0,92,0.00,23:30,,0.00,WeatherDisplay:WD co,2013-02-18 21:30:00,
2013-02-18 23:35:00,48.7,46.5,28.46,ENE,62,1.0,3.0,92,0.00,23:35,,0.00,WeatherDisplay:WD co,2013-02-18 21:35:00,
2013-02-18 23:40:00,48.9,46.7,28.46,NE,45,1.0,3.0,92,0.00,23:40,,0.00,WeatherDisplay:WD co,2013-02-18 21:40:00,
2013-02-18 23:45:00,48.9,46.7,28.47,NE,49,0.0,4.0,92,0.00,23:45,,0.00,WeatherDisplay:WD co,2013-02-18 21:45:00,
2013-02-18 23:55:00,48.9,46.7,28.47,North,3,0.0,3.0,92,0.00,23:55,,0.00,WeatherDisplay:WD co,2013-02-18 21:55:00,